createdAt,value
2022-12-28T00:01:18.761Z,27.70
2022-12-28T00:03:53.408Z,6.27
2022-12-28T00:06:22.965Z,8.40
2022-12-28T00:08:52.759Z,5.10
2022-12-28T00:11:30.955Z,7.03
2022-12-28T00:14:02.607Z,2.43
2022-12-28T00:16:39.488Z,1.67
2022-12-28T00:19:12.916Z,4.57
2022-12-28T00:21:47.419Z,2.77
2022-12-28T00:24:26.006Z,2.47
2022-12-28T00:27:00.414Z,2.90
2022-12-28T00:29:27.865Z,2.17
2022-12-28T00:31:55.334Z,1.60
2022-12-28T00:34:29.402Z,1.37
2022-12-28T00:37:09.269Z,3.37
2022-12-28T00:39:53.402Z,1.30
2022-12-28T00:42:21.734Z,2.23
2022-12-28T00:44:49.024Z,1.80
2022-12-28T00:47:22.415Z,2.40
2022-12-28T00:49:49.759Z,5.50
2022-12-28T00:52:17.146Z,7.93
2022-12-28T00:54:51.419Z,3.50
2022-12-28T00:57:18.788Z,1.83
2022-12-28T00:59:46.405Z,2.57
2022-12-28T01:02:20.436Z,5.53
2022-12-28T01:04:47.824Z,4.53
2022-12-28T01:07:15.218Z,1.97
2022-12-28T01:09:49.458Z,2.03
2022-12-28T01:12:16.888Z,2.33
2022-12-28T01:14:44.252Z,3.83
2022-12-28T01:17:18.471Z,2.73
2022-12-28T01:19:53.799Z,4.27
2022-12-28T01:22:28.058Z,3.43
2022-12-28T01:24:55.399Z,2.90
2022-12-28T01:27:22.794Z,3.83
2022-12-28T01:29:57.043Z,5.60
2022-12-28T01:32:24.383Z,6.03
2022-12-28T01:34:51.721Z,2.03
2022-12-28T01:37:29.180Z,4.53
2022-12-28T01:40:05.313Z,5.33
2022-12-28T01:42:39.469Z,3.53
2022-12-28T01:45:18.173Z,2.07
2022-12-28T01:47:54.436Z,1.43
2022-12-28T01:50:26.091Z,1.13
2022-12-28T01:53:05.447Z,0.77
2022-12-28T01:55:36.867Z,0.73
2022-12-28T01:58:27.455Z,6.67
2022-12-28T02:00:55.155Z,1.30
2022-12-28T02:03:27.052Z,1.20
2022-12-28T02:06:07.463Z,1.53
2022-12-28T02:08:58.346Z,2.23
2022-12-28T02:11:39.848Z,2.00
2022-12-28T02:14:09.317Z,1.80
2022-12-28T02:16:43.876Z,4.47
2022-12-28T02:19:18.545Z,3.37
2022-12-28T02:22:34.576Z,1.37
2022-12-28T02:25:20.638Z,1.57
2022-12-28T02:28:13.600Z,2.87
2022-12-28T02:30:57.252Z,3.30
2022-12-28T02:33:50.587Z,0.73
2022-12-28T02:36:44.655Z,1.07
2022-12-28T02:39:45.590Z,1.20
2022-12-28T02:42:14.753Z,0.63
2022-12-28T02:45:07.561Z,2.33
2022-12-28T02:47:53.733Z,1.50
2022-12-28T02:50:28.797Z,0.70
2022-12-28T02:53:05.215Z,1.33
2022-12-28T02:56:10.628Z,1.23
2022-12-28T02:59:10.342Z,0.50
2022-12-28T03:01:56.728Z,1.23
2022-12-28T03:04:36.175Z,4.07
2022-12-28T03:07:43.647Z,1.13
2022-12-28T03:10:21.238Z,0.23
2022-12-28T03:13:09.576Z,1.47
2022-12-28T03:15:38.670Z,1.90
2022-12-28T03:18:38.581Z,1.40
2022-12-28T03:21:28.762Z,1.20
2022-12-28T03:24:22.673Z,2.40
2022-12-28T03:27:10.469Z,1.07
2022-12-28T03:30:11.584Z,0.93
2022-12-28T03:32:39.147Z,1.00
2022-12-28T03:35:06.898Z,0.93
2022-12-28T03:37:58.554Z,1.43
2022-12-28T03:40:44.735Z,1.87
2022-12-28T03:43:49.617Z,1.37
2022-12-28T03:46:36.470Z,1.73
2022-12-28T03:49:10.635Z,0.67
2022-12-28T03:51:38.943Z,0.93
2022-12-28T03:54:20.636Z,1.10
2022-12-28T03:56:49.628Z,1.17
2022-12-28T03:59:17.922Z,2.97
2022-12-28T04:01:53.119Z,0.83
2022-12-28T04:04:20.614Z,1.63
2022-12-28T04:06:48.074Z,1.70
2022-12-28T04:09:22.012Z,3.40
2022-12-28T04:11:49.347Z,0.90
2022-12-28T04:14:16.990Z,1.10
2022-12-28T04:16:50.991Z,2.10
2022-12-28T04:19:18.916Z,0.57
2022-12-28T04:21:46.270Z,2.30
2022-12-28T04:24:21.940Z,0.50
2022-12-28T04:26:53.329Z,0.83
2022-12-28T04:29:20.696Z,1.50
2022-12-28T04:31:54.400Z,1.70
2022-12-28T04:34:21.919Z,3.27
2022-12-28T04:37:04.422Z,5.73
2022-12-28T04:39:54.920Z,1.37
2022-12-28T04:42:39.701Z,0.70
2022-12-28T04:45:07.649Z,3.87
2022-12-28T04:47:37.147Z,1.33
2022-12-28T04:50:11.196Z,1.47
2022-12-28T04:52:38.555Z,1.33
2022-12-28T04:55:06.157Z,2.10
2022-12-28T04:57:40.152Z,2.07
2022-12-28T05:00:08.188Z,2.07
2022-12-28T05:02:35.604Z,3.97
2022-12-28T05:05:12.145Z,2.13
2022-12-28T05:07:41.721Z,3.03
2022-12-28T05:10:09.308Z,1.50
2022-12-28T05:12:44.786Z,0.93
2022-12-28T05:15:12.483Z,4.50
2022-12-28T05:17:39.845Z,1.37
2022-12-28T05:20:13.798Z,2.00
2022-12-28T05:22:45.056Z,4.00
2022-12-28T05:25:24.708Z,1.27
2022-12-28T05:27:52.147Z,4.37
2022-12-28T05:30:19.712Z,3.17
2022-12-28T05:32:53.758Z,0.77
2022-12-28T05:35:21.180Z,0.63
2022-12-28T05:38:01.769Z,1.20
2022-12-28T05:40:29.748Z,0.60
2022-12-28T05:42:57.200Z,2.50
2022-12-28T05:45:30.761Z,0.73
2022-12-28T05:47:58.346Z,1.83
2022-12-28T05:50:25.813Z,1.63
2022-12-28T05:52:59.722Z,2.13
2022-12-28T05:55:27.177Z,2.23
2022-12-28T05:57:57.716Z,1.50
2022-12-28T06:00:31.731Z,2.43
2022-12-28T06:03:01.354Z,2.13
2022-12-28T06:05:30.649Z,4.80
2022-12-28T06:08:04.645Z,2.53
2022-12-28T06:10:32.287Z,2.30
2022-12-28T06:12:59.754Z,1.43
2022-12-28T06:15:33.683Z,6.63
2022-12-28T06:18:05.121Z,0.87
2022-12-28T06:20:32.584Z,2.40
2022-12-28T06:23:06.111Z,0.87
2022-12-28T06:25:33.680Z,2.97
2022-12-28T06:28:01.095Z,2.67
2022-12-28T06:30:36.877Z,1.40
2022-12-28T06:33:08.329Z,1.13
2022-12-28T06:35:47.397Z,1.70
2022-12-28T06:38:37.347Z,3.73
2022-12-28T06:41:14.768Z,0.90
2022-12-28T06:43:45.562Z,2.67
2022-12-28T06:46:20.469Z,3.57
2022-12-28T06:48:48.492Z,0.80
2022-12-28T06:51:28.436Z,2.37
2022-12-28T06:53:56.431Z,2.03
2022-12-28T06:56:36.520Z,3.40
2022-12-28T06:59:06.516Z,2.77
2022-12-28T07:01:37.183Z,2.20
2022-12-28T07:04:13.430Z,5.40
2022-12-28T07:06:44.709Z,2.20
2022-12-28T07:09:22.228Z,1.83
2022-12-28T07:11:52.969Z,4.30
2022-12-28T07:14:21.805Z,1.87
2022-12-28T07:16:56.294Z,2.17
2022-12-28T07:19:23.740Z,2.30
2022-12-28T07:21:51.281Z,0.70
2022-12-28T07:24:25.189Z,1.63
2022-12-28T07:26:52.559Z,2.63
2022-12-28T07:29:20.026Z,1.33
2022-12-28T07:31:54.148Z,1.27
2022-12-28T07:34:21.694Z,1.30
2022-12-28T07:37:09.175Z,1.03
2022-12-28T07:39:36.626Z,4.43
2022-12-28T07:42:06.883Z,3.80
2022-12-28T07:44:45.484Z,1.23
2022-12-28T07:47:17.603Z,1.80
2022-12-28T07:49:51.235Z,1.57
2022-12-28T07:52:21.226Z,4.77
2022-12-28T07:54:49.394Z,3.63
2022-12-28T07:57:23.210Z,0.60
2022-12-28T07:59:50.563Z,4.20
2022-12-28T08:02:20.850Z,0.97
2022-12-28T08:04:55.182Z,2.17
2022-12-28T08:07:22.672Z,1.10
2022-12-28T08:09:50.037Z,1.70
2022-12-28T08:12:24.188Z,0.93
2022-12-28T08:14:51.813Z,0.40
2022-12-28T08:17:21.341Z,0.83
2022-12-28T08:19:57.490Z,1.47
2022-12-28T08:22:25.032Z,2.40
2022-12-28T08:24:52.726Z,1.10
2022-12-28T08:27:26.150Z,1.63
2022-12-28T08:29:53.580Z,1.43
2022-12-28T08:32:21.000Z,2.97
2022-12-28T08:34:55.159Z,3.07
2022-12-28T08:37:42.210Z,0.30
2022-12-28T08:40:17.173Z,3.30
2022-12-28T08:42:44.565Z,1.13
2022-12-28T08:45:12.250Z,1.57
2022-12-28T08:47:46.214Z,1.13
2022-12-28T08:50:16.936Z,0.60
2022-12-28T08:52:56.163Z,2.60
2022-12-28T08:55:23.530Z,1.13
2022-12-28T08:58:04.236Z,0.87
2022-12-28T09:00:33.568Z,1.50
2022-12-28T09:03:01.239Z,1.70
2022-12-28T09:05:39.465Z,1.03
2022-12-28T09:08:07.325Z,1.70
2022-12-28T09:10:34.748Z,1.37
2022-12-28T09:13:08.598Z,0.77
2022-12-28T09:15:38.190Z,1.10
2022-12-28T09:18:22.292Z,1.77
2022-12-28T09:20:51.734Z,0.77
2022-12-28T09:23:19.127Z,0.77
2022-12-28T09:25:56.066Z,2.60
2022-12-28T09:28:25.632Z,2.20
2022-12-28T09:30:53.047Z,0.77
2022-12-28T09:34:23.396Z,1.90
2022-12-28T09:36:41.029Z,0.87
2022-12-28T09:39:31.660Z,1.07
2022-12-28T09:42:23.997Z,3.13
2022-12-28T09:45:04.321Z,0.93
2022-12-28T09:47:52.484Z,1.53
2022-12-28T09:50:36.933Z,1.27
2022-12-28T09:53:22.020Z,1.70
2022-12-28T09:56:03.948Z,0.97
2022-12-28T09:58:33.348Z,0.87
2022-12-28T10:01:11.001Z,1.73
2022-12-28T10:03:40.827Z,1.13
2022-12-28T10:06:23.963Z,1.23
2022-12-28T10:09:00.114Z,2.07
2022-12-28T10:11:45.478Z,1.27
2022-12-28T10:14:35.836Z,1.53
2022-12-28T10:17:13.866Z,1.70
2022-12-28T10:19:44.136Z,1.53
2022-12-28T10:22:25.823Z,1.17
2022-12-28T10:24:54.158Z,1.75
2022-12-28T10:27:36.845Z,2.65
2022-12-28T10:30:16.210Z,3.05
2022-12-28T10:33:03.478Z,1.17
2022-12-28T10:35:48.994Z,1.35
2022-12-28T10:38:36.858Z,1.63
2022-12-28T10:41:17.941Z,1.88
2022-12-28T10:44:29.200Z,2.58
2022-12-28T10:46:53.708Z,2.15
2022-12-28T10:49:27.868Z,2.53
2022-12-28T10:52:14.796Z,1.90
2022-12-28T10:55:07.537Z,1.50
2022-12-28T10:57:38.079Z,2.93
2022-12-28T11:00:32.877Z,1.23
2022-12-28T11:03:00.525Z,1.83
2022-12-28T11:05:32.598Z,1.37
2022-12-28T11:08:13.646Z,2.67
2022-12-28T11:10:41.285Z,3.67
2022-12-28T11:13:26.694Z,2.83
2022-12-28T11:15:54.277Z,3.33
2022-12-28T11:18:22.113Z,3.40
2022-12-28T11:20:58.895Z,3.17
2022-12-28T11:23:31.656Z,3.37
2022-12-28T11:26:07.657Z,1.53
2022-12-28T11:28:35.087Z,2.83
2022-12-28T11:31:05.878Z,1.42
2022-12-28T11:33:55.652Z,1.98
2022-12-28T11:36:25.630Z,2.60
2022-12-28T11:39:26.659Z,1.52
2022-12-28T11:42:37.078Z,1.90
2022-12-28T11:44:56.288Z,2.03
2022-12-28T11:47:35.633Z,2.95
2022-12-28T11:50:41.316Z,2.45
2022-12-28T11:53:42.999Z,2.55
2022-12-28T11:56:23.571Z,4.72
2022-12-28T11:59:03.947Z,3.17
2022-12-28T12:01:39.743Z,2.88
2022-12-28T12:04:11.761Z,3.22
2022-12-28T12:07:11.652Z,1.65
2022-12-28T12:09:43.161Z,3.13
2022-12-28T12:12:23.621Z,2.67
2022-12-28T12:15:04.749Z,1.90
2022-12-28T12:17:56.602Z,3.40
2022-12-28T12:20:46.641Z,3.72
2022-12-28T12:23:42.621Z,3.72
2022-12-28T12:26:37.702Z,4.05
2022-12-28T12:29:44.772Z,1.80
2022-12-28T12:32:25.673Z,1.95
2022-12-28T12:35:06.792Z,2.33
2022-12-28T12:37:56.404Z,2.15
2022-12-28T12:40:54.727Z,1.85
2022-12-28T12:43:29.498Z,2.05
2022-12-28T12:46:10.809Z,2.60
2022-12-28T12:49:02.690Z,3.23
2022-12-28T12:51:39.705Z,1.47
2022-12-28T12:54:18.155Z,1.30
2022-12-28T12:56:54.727Z,2.40
2022-12-28T12:59:33.490Z,3.93
2022-12-28T13:02:40.119Z,4.20
2022-12-28T13:05:14.506Z,2.93
2022-12-28T13:07:48.983Z,3.60
2022-12-28T13:10:44.011Z,3.23
2022-12-28T13:13:30.006Z,4.17
2022-12-28T13:16:16.213Z,3.70
2022-12-28T13:19:24.554Z,3.70
2022-12-28T13:21:53.066Z,8.77
2022-12-28T13:24:34.544Z,2.87
2022-12-28T13:27:03.308Z,3.50
2022-12-28T13:29:46.529Z,4.90
2022-12-28T13:32:38.544Z,3.33
2022-12-28T13:35:28.409Z,5.40
2022-12-28T13:38:15.670Z,2.40
2022-12-28T13:40:58.581Z,4.40
2022-12-28T13:43:53.235Z,2.47
2022-12-28T13:46:28.589Z,5.13
2022-12-28T13:48:58.224Z,3.83
2022-12-28T13:51:26.809Z,3.13
2022-12-28T13:54:06.595Z,3.53
2022-12-28T13:56:36.498Z,4.17
2022-12-28T13:59:16.625Z,4.90
2022-12-28T14:01:47.030Z,5.60
2022-12-28T14:07:19.220Z,3.87
2022-12-28T14:09:56.014Z,6.43
2022-12-28T14:12:24.309Z,3.67
2022-12-28T14:14:52.340Z,5.20
2022-12-28T14:17:27.043Z,3.13
2022-12-28T14:19:57.734Z,4.63
2022-12-28T14:22:42.279Z,4.83
2022-12-28T14:25:18.493Z,8.37
2022-12-28T14:28:02.277Z,5.07
2022-12-28T14:30:52.045Z,6.43
2022-12-28T14:33:32.294Z,4.23
2022-12-28T14:36:02.029Z,4.77
2022-12-28T14:38:51.314Z,7.13
2022-12-28T14:41:35.944Z,7.57
2022-12-28T14:44:19.853Z,5.87
2022-12-28T14:46:47.479Z,4.67
2022-12-28T14:49:38.789Z,3.93
2022-12-28T14:52:09.256Z,6.17
2022-12-28T14:54:58.796Z,5.37
2022-12-28T14:57:26.210Z,5.00
2022-12-28T15:00:13.759Z,4.40
2022-12-28T15:02:43.472Z,7.83
2022-12-28T15:05:40.789Z,5.17
2022-12-28T15:08:09.245Z,3.97
2022-12-28T15:10:49.771Z,4.10
2022-12-28T15:13:18.877Z,4.33
2022-12-28T15:16:07.081Z,4.53
2022-12-28T15:18:46.949Z,5.77
2022-12-28T15:21:30.820Z,6.93
2022-12-28T15:23:59.481Z,5.77
2022-12-28T15:26:28.166Z,6.97
2022-12-28T15:29:01.816Z,7.27
2022-12-28T15:31:29.253Z,5.07
2022-12-28T15:33:56.657Z,5.80
2022-12-28T15:36:31.871Z,4.90
2022-12-28T15:39:05.896Z,12.23
2022-12-28T15:41:54.833Z,6.67
2022-12-28T15:44:22.365Z,6.80
2022-12-28T15:46:50.364Z,9.13
2022-12-28T15:49:24.797Z,7.93
2022-12-28T15:51:52.181Z,7.27
2022-12-28T15:54:19.687Z,7.60
2022-12-28T15:56:59.856Z,8.77
2022-12-28T15:59:27.720Z,7.40
2022-12-28T16:01:55.359Z,9.90
2022-12-28T16:04:29.784Z,8.13
2022-12-28T16:06:57.308Z,6.17
2022-12-28T16:09:24.739Z,8.07
2022-12-28T16:11:58.816Z,8.10
2022-12-28T16:14:26.188Z,8.43
2022-12-28T16:16:53.666Z,6.23
2022-12-28T16:19:27.825Z,14.03
2022-12-28T16:21:55.248Z,10.00
2022-12-28T16:24:24.696Z,5.80
2022-12-28T16:27:03.466Z,7.73
2022-12-28T16:29:30.892Z,7.93
2022-12-28T16:32:00.719Z,7.23
2022-12-28T16:34:35.445Z,8.97
2022-12-28T16:37:02.875Z,6.47
2022-12-28T16:39:44.850Z,10.27
2022-12-28T16:42:12.541Z,8.23
2022-12-28T16:44:40.210Z,7.30
2022-12-28T16:47:13.834Z,8.20
2022-12-28T16:49:43.272Z,7.17
2022-12-28T16:52:10.710Z,7.70
2022-12-28T16:54:44.384Z,6.47
2022-12-28T16:57:12.137Z,6.73
2022-12-28T16:59:39.493Z,6.57
2022-12-28T17:02:15.536Z,6.63
2022-12-28T17:04:43.875Z,6.57
2022-12-28T17:07:11.383Z,6.17
2022-12-28T17:09:50.090Z,7.50
2022-12-28T17:12:19.870Z,9.43
2022-12-28T17:15:03.207Z,7.03
2022-12-28T17:17:32.338Z,5.37
2022-12-28T17:20:09.173Z,7.67
2022-12-28T17:22:36.658Z,6.43
2022-12-28T17:25:04.459Z,7.13
2022-12-28T17:27:38.142Z,4.43
2022-12-28T17:30:05.846Z,6.30
2022-12-28T17:32:34.385Z,5.67
2022-12-28T17:35:08.209Z,6.27
2022-12-28T17:37:36.221Z,6.13
2022-12-28T17:40:17.182Z,6.77
2022-12-28T17:42:45.150Z,7.87
2022-12-28T17:45:12.645Z,4.77
2022-12-28T17:47:46.185Z,4.27
2022-12-28T17:50:13.818Z,5.30
2022-12-28T17:52:41.936Z,5.47
2022-12-28T17:55:17.250Z,4.07
2022-12-28T17:57:44.707Z,3.33
2022-12-28T18:00:12.869Z,6.40
2022-12-28T18:02:47.387Z,3.00
2022-12-28T18:05:15.015Z,4.93
2022-12-28T18:07:44.532Z,4.73
2022-12-28T18:10:18.627Z,2.57
2022-12-28T18:12:50.666Z,3.97
2022-12-28T18:15:18.325Z,2.77
2022-12-28T18:17:52.062Z,3.10
2022-12-28T18:20:19.434Z,2.90
2022-12-28T18:22:46.785Z,5.60
2022-12-28T18:25:21.030Z,2.37
2022-12-28T18:27:48.374Z,2.50
2022-12-28T18:30:15.942Z,4.17
2022-12-28T18:32:52.428Z,3.97
2022-12-28T18:35:25.091Z,5.70
2022-12-28T18:37:52.625Z,3.53
2022-12-28T18:40:27.985Z,3.20
2022-12-28T18:42:55.370Z,3.70
2022-12-28T18:45:22.760Z,5.10
2022-12-28T18:47:58.585Z,3.33
2022-12-28T18:50:26.528Z,9.63
2022-12-28T18:52:53.896Z,2.83
2022-12-28T18:55:27.614Z,2.23
2022-12-28T18:57:55.048Z,3.47
2022-12-28T19:00:22.477Z,3.10
2022-12-28T19:02:59.745Z,4.67
2022-12-28T19:05:27.227Z,3.17
2022-12-28T19:07:54.618Z,3.73
2022-12-28T19:10:28.564Z,6.10
2022-12-28T19:12:57.731Z,3.47
2022-12-28T19:15:25.426Z,4.37
2022-12-28T19:17:59.529Z,5.37
2022-12-28T19:20:26.933Z,3.40
2022-12-28T19:22:54.961Z,3.57
2022-12-28T19:25:28.553Z,3.73
2022-12-28T19:27:56.905Z,3.90
2022-12-28T19:30:24.723Z,5.17
2022-12-28T19:32:59.561Z,3.40
2022-12-28T19:35:29.215Z,3.73
2022-12-28T19:37:56.773Z,2.43
2022-12-28T19:40:37.234Z,3.03
2022-12-28T19:43:04.643Z,3.33
2022-12-28T19:45:32.092Z,1.23
2022-12-28T19:48:08.916Z,1.53
2022-12-28T19:50:38.510Z,3.77
2022-12-28T19:53:06.234Z,2.70
2022-12-28T19:55:41.334Z,2.73
2022-12-28T19:58:08.770Z,2.63
2022-12-28T20:00:36.636Z,2.40
2022-12-28T20:03:10.461Z,3.13
2022-12-28T20:05:37.942Z,3.53
2022-12-28T20:08:05.548Z,1.77
2022-12-28T20:10:39.387Z,2.10
2022-12-28T20:13:06.883Z,2.47
2022-12-28T20:15:47.456Z,2.40
2022-12-28T20:18:14.828Z,3.00
2022-12-28T20:21:17.211Z,1.30
2022-12-28T20:23:38.381Z,2.90
2022-12-28T20:26:05.973Z,2.17
2022-12-28T20:28:34.558Z,0.87
2022-12-28T20:31:13.520Z,2.43
2022-12-28T20:33:42.965Z,1.50
2022-12-28T20:36:24.533Z,1.10
2022-12-28T20:39:25.817Z,1.93
2022-12-28T20:42:20.457Z,2.27
2022-12-28T20:44:47.784Z,1.23
2022-12-28T20:47:15.204Z,2.33
2022-12-28T20:49:50.896Z,1.57
2022-12-28T20:52:18.342Z,2.47
2022-12-28T20:54:48.858Z,3.03
2022-12-28T20:57:22.904Z,3.20
2022-12-28T20:59:50.336Z,2.87
2022-12-28T21:02:17.740Z,1.37
2022-12-28T21:04:51.902Z,3.07
2022-12-28T21:07:19.784Z,1.50
2022-12-28T21:09:50.735Z,2.57
2022-12-28T21:12:24.888Z,2.97
2022-12-28T21:14:52.210Z,1.47
2022-12-28T21:17:19.654Z,3.10
2022-12-28T21:19:53.951Z,1.37
2022-12-28T21:22:21.337Z,3.63
2022-12-28T21:24:49.023Z,2.97
2022-12-28T21:27:22.984Z,6.17
2022-12-28T21:29:50.394Z,6.10
2022-12-28T21:32:17.894Z,5.40
2022-12-28T21:34:51.931Z,6.20
2022-12-28T21:37:34.364Z,3.27
2022-12-28T21:40:15.997Z,3.80
2022-12-28T21:42:45.186Z,4.83
2022-12-28T21:45:14.051Z,3.97
2022-12-28T21:47:48.206Z,5.83
2022-12-28T21:50:15.728Z,6.60
2022-12-28T21:52:43.101Z,5.17
2022-12-28T21:55:35.322Z,8.30
2022-12-28T21:58:06.663Z,6.83
2022-12-28T22:00:58.852Z,2.27
2022-12-28T22:03:44.772Z,4.67
2022-12-28T22:06:18.780Z,5.30
2022-12-28T22:09:05.300Z,5.10
2022-12-28T22:11:57.760Z,6.50
2022-12-28T22:14:25.354Z,5.40
2022-12-28T22:16:52.859Z,3.40
2022-12-28T22:19:26.751Z,6.33
2022-12-28T22:21:54.163Z,3.40
2022-12-28T22:24:21.554Z,17.97
2022-12-28T22:26:59.340Z,17.30
2022-12-28T22:29:28.688Z,7.40
2022-12-28T22:31:56.075Z,15.20
2022-12-28T22:34:29.652Z,3.83
2022-12-28T22:36:57.099Z,3.53
2022-12-28T22:39:37.690Z,1.50
2022-12-28T22:42:05.188Z,6.33
2022-12-28T22:44:35.766Z,5.33
2022-12-28T22:47:10.273Z,5.40
2022-12-28T22:49:37.675Z,7.60
2022-12-28T22:52:05.224Z,3.17
2022-12-28T22:54:39.255Z,4.60
2022-12-28T22:57:07.182Z,4.63
2022-12-28T22:59:35.143Z,2.80
2022-12-28T23:02:09.391Z,2.73
2022-12-28T23:04:37.031Z,2.63
2022-12-28T23:07:04.646Z,1.77
2022-12-28T23:09:38.320Z,3.43
2022-12-28T23:12:14.119Z,4.57
2022-12-28T23:15:06.331Z,1.70
2022-12-28T23:17:36.038Z,1.93
2022-12-28T23:20:28.285Z,9.27
2022-12-28T23:22:58.449Z,2.00
2022-12-28T23:25:53.295Z,4.10
2022-12-28T23:28:20.627Z,2.77
2022-12-28T23:30:49.782Z,5.90
2022-12-28T23:33:24.317Z,1.93
2022-12-28T23:36:01.432Z,5.47
2022-12-28T23:38:49.732Z,3.93
2022-12-28T23:41:35.943Z,3.10
2022-12-28T23:44:13.612Z,3.90
2022-12-28T23:46:41.026Z,1.87
2022-12-28T23:49:09.727Z,2.70
2022-12-28T23:51:46.668Z,3.73
2022-12-28T23:54:16.672Z,2.63
2022-12-28T23:56:44.952Z,2.10
2022-12-28T23:59:18.649Z,3.63
